sensor_id;sensor_type;location;lat;lon;timestamp;pressure;altitude;pressure_sealevel;temperature;humidity
59859;BME280;45734;53.648;9.566;2024-01-10T00:01:01;54759.25;;;-145.06;100.00
59859;BME280;45734;53.648;9.566;2024-01-10T00:06:01;54787.59;;;-145.06;100.00
59859;BME280;45734;53.648;9.566;2024-01-10T00:11:01;54753.16;;;-145.06;100.00
59859;BME280;45734;53.648;9.566;2024-01-10T00:16:02;54775.44;;;-145.06;100.00
59859;BME280;45734;53.648;9.566;2024-01-10T00:21:02;54751.16;;;-145.06;100.00
59859;BME280;45734;53.648;9.566;2024-01-10T00:26:03;54787.59;;;-145.06;100.00
59859;BME280;45734;53.648;9.566;2024-01-10T00:31:04;54783.56;;;-145.06;100.00
59859;BME280;45734;53.648;9.566;2024-01-10T00:36:04;54781.53;;;-145.06;100.00
59859;BME280;45734;53.648;9.566;2024-01-10T00:41:04;54828.13;;;-145.06;100.00
59859;BME280;45734;53.648;9.566;2024-01-10T00:46:05;54824.06;;;-145.06;100.00
59859;BME280;45734;53.648;9.566;2024-01-10T00:51:05;54822.03;;;-145.06;100.00
59859;BME280;45734;53.648;9.566;2024-01-10T00:56:08;54828.13;;;-145.06;100.00
59859;BME280;45734;53.648;9.566;2024-01-10T01:01:09;54840.28;;;-145.06;100.00
59859;BME280;45734;53.648;9.566;2024-01-10T01:06:09;54848.38;;;-145.06;100.00
59859;BME280;45734;53.648;9.566;2024-01-10T01:11:09;54844.31;;;-145.06;100.00
59859;BME280;45734;53.648;9.566;2024-01-10T01:16:10;54860.53;;;-145.06;100.00
59859;BME280;45734;53.648;9.566;2024-01-10T01:21:11;54852.44;;;-145.06;100.00
59859;BME280;45734;53.648;9.566;2024-01-10T01:26:12;54848.38;;;-145.06;100.00
59859;BME280;45734;53.648;9.566;2024-01-10T01:31:13;54880.78;;;-145.06;100.00
59859;BME280;45734;53.648;9.566;2024-01-10T01:36:14;54897.00;;;-145.06;100.00
59859;BME280;45734;53.648;9.566;2024-01-10T01:41:14;54878.75;;;-145.06;100.00
59859;BME280;45734;53.648;9.566;2024-01-10T01:46:15;54888.88;;;-145.06;100.00
59859;BME280;45734;53.648;9.566;2024-01-10T01:51:16;54903.06;;;-145.06;100.00
59859;BME280;45734;53.648;9.566;2024-01-10T01:56:18;54886.88;;;-145.06;100.00
59859;BME280;45734;53.648;9.566;2024-01-10T02:01:18;54913.19;;;-145.06;100.00
59859;BME280;45734;53.648;9.566;2024-01-10T02:06:21;54909.16;;;-145.06;100.00
59859;BME280;45734;53.648;9.566;2024-01-10T02:11:22;54907.13;;;-145.06;100.00
59859;BME280;45734;53.648;9.566;2024-01-10T02:16:23;54925.34;;;-145.06;100.00
59859;BME280;45734;53.648;9.566;2024-01-10T02:21:24;54917.25;;;-145.06;100.00
59859;BME280;45734;53.648;9.566;2024-01-10T02:26:25;54933.44;;;-145.06;100.00
59859;BME280;45734;53.648;9.566;2024-01-10T02:31:27;54931.44;;;-145.06;100.00
59859;BME280;45734;53.648;9.566;2024-01-10T02:36:27;54925.34;;;-145.06;100.00
59859;BME280;45734;53.648;9.566;2024-01-10T02:41:27;54925.34;;;-145.06;100.00
59859;BME280;45734;53.648;9.566;2024-01-10T02:46:28;54949.66;;;-145.06;100.00
59859;BME280;45734;53.648;9.566;2024-01-10T02:51:28;54949.66;;;-145.06;100.00
59859;BME280;45734;53.648;9.566;2024-01-10T02:56:30;54927.38;;;-145.06;100.00
59859;BME280;45734;53.648;9.566;2024-01-10T03:01:30;54959.78;;;-145.06;100.00
59859;BME280;45734;53.648;9.566;2024-01-10T03:06:30;54971.94;;;-145.06;100.00
59859;BME280;45734;53.648;9.566;2024-01-10T03:11:31;54939.53;;;-145.06;100.00
59859;BME280;45734;53.648;9.566;2024-01-10T03:16:33;54957.75;;;-145.06;100.00
59859;BME280;45734;53.648;9.566;2024-01-10T03:21:33;54961.81;;;-145.06;100.00
59859;BME280;45734;53.648;9.566;2024-01-10T03:26:34;54996.25;;;-145.06;100.00
59859;BME280;45734;53.648;9.566;2024-01-10T03:31:34;54986.13;;;-145.06;100.00
59859;BME280;45734;53.648;9.566;2024-01-10T03:36:34;54988.16;;;-145.06;100.00
59859;BME280;45734;53.648;9.566;2024-01-10T03:41:35;54980.03;;;-145.06;100.00
59859;BME280;45734;53.648;9.566;2024-01-10T03:46:35;54961.81;;;-145.06;100.00
59859;BME280;45734;53.648;9.566;2024-01-10T03:51:36;55000.31;;;-145.06;100.00
59859;BME280;45734;53.648;9.566;2024-01-10T03:56:37;55006.38;;;-145.06;100.00
59859;BME280;45734;53.648;9.566;2024-01-10T04:01:37;54973.97;;;-145.06;100.00
59859;BME280;45734;53.648;9.566;2024-01-10T04:06:39;54949.66;;;-145.06;100.00
59859;BME280;45734;53.648;9.566;2024-01-10T04:11:39;54955.72;;;-145.06;100.00
59859;BME280;45734;53.648;9.566;2024-01-10T04:16:39;54965.88;;;-145.06;100.00
59859;BME280;45734;53.648;9.566;2024-01-10T04:21:40;54998.28;;;-145.06;100.00
59859;BME280;45734;53.648;9.566;2024-01-10T04:26:40;54945.59;;;-145.06;100.00
59859;BME280;45734;53.648;9.566;2024-01-10T04:31:42;54990.19;;;-145.06;100.00
59859;BME280;45734;53.648;9.566;2024-01-10T04:36:42;54980.03;;;-145.06;100.00
59859;BME280;45734;53.648;9.566;2024-01-10T04:41:42;54990.19;;;-145.06;100.00
59859;BME280;45734;53.648;9.566;2024-01-10T04:46:43;54994.22;;;-145.06;100.00
59859;BME280;45734;53.648;9.566;2024-01-10T04:51:43;54978.03;;;-145.06;100.00
59859;BME280;45734;53.648;9.566;2024-01-10T04:56:43;55022.59;;;-145.06;100.00
59859;BME280;45734;53.648;9.566;2024-01-10T05:01:44;54986.13;;;-145.06;100.00
59859;BME280;45734;53.648;9.566;2024-01-10T05:06:44;55004.34;;;-145.06;100.00
59859;BME280;45734;53.648;9.566;2024-01-10T05:11:45;54969.91;;;-145.06;100.00
59859;BME280;45734;53.648;9.566;2024-01-10T05:16:50;54971.94;;;-145.06;100.00
59859;BME280;45734;53.648;9.566;2024-01-10T05:21:51;54967.88;;;-145.06;100.00
59859;BME280;45734;53.648;9.566;2024-01-10T05:26:52;54957.75;;;-145.06;100.00
59859;BME280;45734;53.648;9.566;2024-01-10T05:31:52;54998.28;;;-145.06;100.00
59859;BME280;45734;53.648;9.566;2024-01-10T05:36:52;54973.97;;;-145.06;100.00
59859;BME280;45734;53.648;9.566;2024-01-10T05:41:53;55012.47;;;-145.06;100.00
59859;BME280;45734;53.648;9.566;2024-01-10T05:46:54;54996.25;;;-145.06;100.00
59859;BME280;45734;53.648;9.566;2024-01-10T05:51:54;54994.22;;;-145.06;100.00
59859;BME280;45734;53.648;9.566;2024-01-10T05:56:54;55010.44;;;-145.06;100.00
59859;BME280;45734;53.648;9.566;2024-01-10T06:01:55;55044.88;;;-145.06;100.00
59859;BME280;45734;53.648;9.566;2024-01-10T06:06:56;55018.53;;;-145.06;100.00
59859;BME280;45734;53.648;9.566;2024-01-10T06:11:57;55026.63;;;-145.06;100.00
59859;BME280;45734;53.648;9.566;2024-01-10T06:16:57;55004.34;;;-145.06;100.00
59859;BME280;45734;53.648;9.566;2024-01-10T06:21:59;55042.84;;;-145.06;100.00
59859;BME280;45734;53.648;9.566;2024-01-10T06:27:00;55004.34;;;-145.06;100.00
59859;BME280;45734;53.648;9.566;2024-01-10T06:32:00;55010.44;;;-145.06;100.00
59859;BME280;45734;53.648;9.566;2024-01-10T06:37:01;55042.84;;;-145.06;100.00
59859;BME280;45734;53.648;9.566;2024-01-10T06:42:01;55046.91;;;-145.06;100.00
59859;BME280;45734;53.648;9.566;2024-01-10T06:47:03;55026.63;;;-145.06;100.00
59859;BME280;45734;53.648;9.566;2024-01-10T06:52:04;55075.25;;;-145.06;100.00
59859;BME280;45734;53.648;9.566;2024-01-10T06:57:07;55022.59;;;-145.06;100.00
59859;BME280;45734;53.648;9.566;2024-01-10T07:02:07;55050.94;;;-145.06;100.00
59859;BME280;45734;53.648;9.566;2024-01-10T07:07:07;55075.25;;;-145.06;100.00
59859;BME280;45734;53.648;9.566;2024-01-10T07:12:08;55063.09;;;-145.06;100.00
59859;BME280;45734;53.648;9.566;2024-01-10T07:17:08;55077.28;;;-145.06;100.00
59859;BME280;45734;53.648;9.566;2024-01-10T07:22:09;55087.41;;;-145.06;100.00
59859;BME280;45734;53.648;9.566;2024-01-10T07:27:11;55083.34;;;-145.06;100.00
59859;BME280;45734;53.648;9.566;2024-01-10T07:32:12;55061.06;;;-145.06;100.00
59859;BME280;45734;53.648;9.566;2024-01-10T07:37:13;55107.66;;;-145.06;100.00
59859;BME280;45734;53.648;9.566;2024-01-10T07:42:16;55107.66;;;-145.06;100.00
59859;BME280;45734;53.648;9.566;2024-01-10T07:47:18;55071.19;;;-145.06;100.00
59859;BME280;45734;53.648;9.566;2024-01-10T07:52:18;55093.47;;;-145.06;100.00
59859;BME280;45734;53.648;9.566;2024-01-10T07:57:19;55081.34;;;-145.06;100.00
59859;BME280;45734;53.648;9.566;2024-01-10T08:02:19;55091.47;;;-145.06;100.00
59859;BME280;45734;53.648;9.566;2024-01-10T08:07:20;55087.41;;;-145.06;100.00
59859;BME280;45734;53.648;9.566;2024-01-10T08:12:20;55077.28;;;-145.06;100.00
59859;BME280;45734;53.648;9.566;2024-01-10T08:17:20;55067.16;;;-145.06;100.00
59859;BME280;45734;53.648;9.566;2024-01-10T08:22:20;55044.88;;;-145.06;100.00
59859;BME280;45734;53.648;9.566;2024-01-10T08:27:21;55083.34;;;-145.06;100.00
59859;BME280;45734;53.648;9.566;2024-01-10T08:32:21;55081.34;;;-145.06;100.00
59859;BME280;45734;53.648;9.566;2024-01-10T08:37:22;55050.94;;;-145.06;100.00
59859;BME280;45734;53.648;9.566;2024-01-10T08:42:22;55083.34;;;-145.06;100.00
59859;BME280;45734;53.648;9.566;2024-01-10T08:47:23;55067.16;;;-145.06;100.00
59859;BME280;45734;53.648;9.566;2024-01-10T08:52:23;55050.94;;;-145.06;100.00
59859;BME280;45734;53.648;9.566;2024-01-10T08:57:24;55050.94;;;-145.06;100.00
59859;BME280;45734;53.648;9.566;2024-01-10T09:02:26;55057.03;;;-145.06;100.00
59859;BME280;45734;53.648;9.566;2024-01-10T09:07:27;55036.75;;;-145.06;100.00
59859;BME280;45734;53.648;9.566;2024-01-10T09:12:28;55038.78;;;-145.06;100.00
59859;BME280;45734;53.648;9.566;2024-01-10T09:17:28;55018.53;;;-145.06;100.00
59859;BME280;45734;53.648;9.566;2024-01-10T09:22:28;55030.69;;;-145.06;100.00
59859;BME280;45734;53.648;9.566;2024-01-10T09:27:30;55038.78;;;-145.06;100.00
59859;BME280;45734;53.648;9.566;2024-01-10T09:32:30;55050.94;;;-145.06;100.00
59859;BME280;45734;53.648;9.566;2024-01-10T09:37:31;55026.63;;;-145.06;100.00
59859;BME280;45734;53.648;9.566;2024-01-10T09:42:31;55026.63;;;-145.06;100.00
59859;BME280;45734;53.648;9.566;2024-01-10T09:47:35;55040.81;;;-145.06;100.00
59859;BME280;45734;53.648;9.566;2024-01-10T09:57:49;55055.00;;;-145.06;100.00
59859;BME280;45734;53.648;9.566;2024-01-10T10:02:50;55010.44;;;-145.06;100.00
59859;BME280;45734;53.648;9.566;2024-01-10T10:07:52;55014.47;;;-145.06;100.00
59859;BME280;45734;53.648;9.566;2024-01-10T10:12:53;55020.56;;;-145.06;100.00
59859;BME280;45734;53.648;9.566;2024-01-10T10:17:54;55018.53;;;-145.06;100.00
59859;BME280;45734;53.648;9.566;2024-01-10T10:23:03;55032.72;;;-145.06;100.00
59859;BME280;45734;53.648;9.566;2024-01-10T10:28:04;55055.00;;;-145.06;100.00
59859;BME280;45734;53.648;9.566;2024-01-10T10:33:05;55073.22;;;-145.06;100.00
59859;BME280;45734;53.648;9.566;2024-01-10T10:38:08;55055.00;;;-145.06;100.00
59859;BME280;45734;53.648;9.566;2024-01-10T10:43:13;55036.75;;;-145.06;100.00
59859;BME280;45734;53.648;9.566;2024-01-10T10:48:17;55010.44;;;-145.06;100.00
59859;BME280;45734;53.648;9.566;2024-01-10T10:53:19;55008.41;;;-145.06;100.00
59859;BME280;45734;53.648;9.566;2024-01-10T10:58:20;55004.34;;;-145.06;100.00
59859;BME280;45734;53.648;9.566;2024-01-10T11:03:21;55022.59;;;-145.06;100.00
59859;BME280;45734;53.648;9.566;2024-01-10T11:08:24;55028.66;;;-145.06;100.00
59859;BME280;45734;53.648;9.566;2024-01-10T11:13:42;55008.41;;;-145.06;100.00
59859;BME280;45734;53.648;9.566;2024-01-10T11:23:56;55018.53;;;-145.06;100.00
59859;BME280;45734;53.648;9.566;2024-01-10T11:28:58;55014.47;;;-145.06;100.00
59859;BME280;45734;53.648;9.566;2024-01-10T11:34:00;55071.19;;;-145.06;100.00
59859;BME280;45734;53.648;9.566;2024-01-10T11:39:03;55034.75;;;-145.06;100.00
59859;BME280;45734;53.648;9.566;2024-01-10T11:49:18;55012.47;;;-145.06;100.00
59859;BME280;45734;53.648;9.566;2024-01-10T11:54:44;55024.59;;;-145.06;100.00
59859;BME280;45734;53.648;9.566;2024-01-10T11:59:45;55071.19;;;-145.06;100.00
59859;BME280;45734;53.648;9.566;2024-01-10T12:04:47;55030.69;;;-145.06;100.00
59859;BME280;45734;53.648;9.566;2024-01-10T12:09:48;55010.44;;;-145.06;100.00
59859;BME280;45734;53.648;9.566;2024-01-10T12:14:50;55036.75;;;-145.06;100.00
59859;BME280;45734;53.648;9.566;2024-01-10T12:19:51;55038.78;;;-145.06;100.00
59859;BME280;45734;53.648;9.566;2024-01-10T12:24:51;55046.91;;;-145.06;100.00
59859;BME280;45734;53.648;9.566;2024-01-10T12:29:52;55012.47;;;-145.06;100.00
59859;BME280;45734;53.648;9.566;2024-01-10T12:35:03;55022.59;;;-145.06;100.00
59859;BME280;45734;53.648;9.566;2024-01-10T12:40:04;54990.19;;;-145.06;100.00
59859;BME280;45734;53.648;9.566;2024-01-10T12:45:05;54994.22;;;-145.06;100.00
59859;BME280;45734;53.648;9.566;2024-01-10T12:50:06;55022.59;;;-145.06;100.00
59859;BME280;45734;53.648;9.566;2024-01-10T12:55:08;55004.34;;;-145.06;100.00
59859;BME280;45734;53.648;9.566;2024-01-10T13:00:09;55050.94;;;-145.06;100.00
59859;BME280;45734;53.648;9.566;2024-01-10T13:05:09;55022.59;;;-145.06;100.00
59859;BME280;45734;53.648;9.566;2024-01-10T13:10:09;55055.00;;;-145.06;100.00
59859;BME280;45734;53.648;9.566;2024-01-10T13:15:10;55012.47;;;-145.06;100.00
59859;BME280;45734;53.648;9.566;2024-01-10T13:20:10;55030.69;;;-145.06;100.00
59859;BME280;45734;53.648;9.566;2024-01-10T13:25:11;55018.53;;;-145.06;100.00
59859;BME280;45734;53.648;9.566;2024-01-10T13:30:12;55038.78;;;-145.06;100.00
59859;BME280;45734;53.648;9.566;2024-01-10T13:35:13;55059.03;;;-145.06;100.00
59859;BME280;45734;53.648;9.566;2024-01-10T13:40:14;55089.44;;;-145.06;100.00
59859;BME280;45734;53.648;9.566;2024-01-10T13:45:14;55089.44;;;-145.06;100.00
59859;BME280;45734;53.648;9.566;2024-01-10T13:50:15;55075.25;;;-145.06;100.00
59859;BME280;45734;53.648;9.566;2024-01-10T13:55:16;55091.47;;;-145.06;100.00
59859;BME280;45734;53.648;9.566;2024-01-10T14:00:18;55119.81;;;-145.06;100.00
59859;BME280;45734;53.648;9.566;2024-01-10T14:05:19;55144.13;;;-145.06;100.00
59859;BME280;45734;53.648;9.566;2024-01-10T14:10:19;55107.66;;;-145.06;100.00
59859;BME280;45734;53.648;9.566;2024-01-10T14:15:20;55146.16;;;-145.06;100.00
59859;BME280;45734;53.648;9.566;2024-01-10T14:20:20;55142.09;;;-145.06;100.00
59859;BME280;45734;53.648;9.566;2024-01-10T14:25:21;55144.13;;;-145.06;100.00
59859;BME280;45734;53.648;9.566;2024-01-10T14:30:21;55144.13;;;-145.06;100.00
59859;BME280;45734;53.648;9.566;2024-01-10T14:35:22;55144.13;;;-145.06;100.00
59859;BME280;45734;53.648;9.566;2024-01-10T14:40:22;55160.34;;;-145.06;100.00
59859;BME280;45734;53.648;9.566;2024-01-10T14:45:23;55152.22;;;-145.06;100.00
59859;BME280;45734;53.648;9.566;2024-01-10T14:50:24;55162.38;;;-145.06;100.00
59859;BME280;45734;53.648;9.566;2024-01-10T14:55:25;55160.34;;;-145.06;100.00
59859;BME280;45734;53.648;9.566;2024-01-10T15:00:25;55148.19;;;-145.06;100.00
59859;BME280;45734;53.648;9.566;2024-01-10T15:05:25;55180.59;;;-145.06;100.00
59859;BME280;45734;53.648;9.566;2024-01-10T15:10:27;55162.38;;;-145.06;100.00
59859;BME280;45734;53.648;9.566;2024-01-10T15:15:28;55150.22;;;-145.06;100.00
59859;BME280;45734;53.648;9.566;2024-01-10T15:20:28;55225.16;;;-145.06;100.00
59859;BME280;45734;53.648;9.566;2024-01-10T15:25:29;55198.81;;;-145.06;100.00
59859;BME280;45734;53.648;9.566;2024-01-10T15:30:29;55144.13;;;-145.06;100.00
59859;BME280;45734;53.648;9.566;2024-01-10T15:35:31;55206.94;;;-145.06;100.00
59859;BME280;45734;53.648;9.566;2024-01-10T15:40:32;55210.97;;;-145.06;100.00
59859;BME280;45734;53.648;9.566;2024-01-10T15:45:32;55217.06;;;-145.06;100.00
59859;BME280;45734;53.648;9.566;2024-01-10T15:50:33;55221.13;;;-145.06;100.00
59859;BME280;45734;53.648;9.566;2024-01-10T15:55:34;55206.94;;;-145.06;100.00
59859;BME280;45734;53.648;9.566;2024-01-10T16:00:36;55213.00;;;-145.06;100.00
59859;BME280;45734;53.648;9.566;2024-01-10T16:05:36;55206.94;;;-145.06;100.00
59859;BME280;45734;53.648;9.566;2024-01-10T16:10:37;55217.06;;;-145.06;100.00
59859;BME280;45734;53.648;9.566;2024-01-10T16:15:38;55210.97;;;-145.06;100.00
59859;BME280;45734;53.648;9.566;2024-01-10T16:20:38;55180.59;;;-145.06;100.00
59859;BME280;45734;53.648;9.566;2024-01-10T16:25:39;55213.00;;;-145.06;100.00
59859;BME280;45734;53.648;9.566;2024-01-10T16:30:39;55229.22;;;-145.06;100.00
59859;BME280;45734;53.648;9.566;2024-01-10T16:35:39;55204.91;;;-145.06;100.00
59859;BME280;45734;53.648;9.566;2024-01-10T16:40:40;55213.00;;;-145.06;100.00
59859;BME280;45734;53.648;9.566;2024-01-10T16:45:40;55202.88;;;-145.06;100.00
59859;BME280;45734;53.648;9.566;2024-01-10T16:50:40;55206.94;;;-145.06;100.00
59859;BME280;45734;53.648;9.566;2024-01-10T16:55:41;55184.66;;;-145.06;100.00
59859;BME280;45734;53.648;9.566;2024-01-10T17:00:41;55225.16;;;-145.06;100.00
59859;BME280;45734;53.648;9.566;2024-01-10T17:05:41;55184.66;;;-145.06;100.00
59859;BME280;45734;53.648;9.566;2024-01-10T17:10:42;55190.72;;;-145.06;100.00
59859;BME280;45734;53.648;9.566;2024-01-10T17:15:43;55172.50;;;-145.06;100.00
59859;BME280;45734;53.648;9.566;2024-01-10T17:20:43;55162.38;;;-145.06;100.00
59859;BME280;45734;53.648;9.566;2024-01-10T17:25:43;55178.56;;;-145.06;100.00
59859;BME280;45734;53.648;9.566;2024-01-10T17:30:44;55192.75;;;-145.06;100.00
59859;BME280;45734;53.648;9.566;2024-01-10T17:35:44;55158.31;;;-145.06;100.00
59859;BME280;45734;53.648;9.566;2024-01-10T17:40:44;55182.63;;;-145.06;100.00
59859;BME280;45734;53.648;9.566;2024-01-10T17:45:45;55164.38;;;-145.06;100.00
59859;BME280;45734;53.648;9.566;2024-01-10T17:50:45;55138.06;;;-145.06;100.00
59859;BME280;45734;53.648;9.566;2024-01-10T17:55:46;55136.03;;;-145.06;100.00
59859;BME280;45734;53.648;9.566;2024-01-10T18:00:46;55134.00;;;-145.06;100.00
59859;BME280;45734;53.648;9.566;2024-01-10T18:05:46;55154.25;;;-145.06;100.00
59859;BME280;45734;53.648;9.566;2024-01-10T18:10:47;55144.13;;;-145.06;100.00
59859;BME280;45734;53.648;9.566;2024-01-10T18:15:48;55121.84;;;-145.06;100.00
59859;BME280;45734;53.648;9.566;2024-01-10T18:20:48;55144.13;;;-145.06;100.00
59859;BME280;45734;53.648;9.566;2024-01-10T18:25:49;55121.84;;;-145.06;100.00
59859;BME280;45734;53.648;9.566;2024-01-10T18:30:49;55131.97;;;-145.06;100.00
59859;BME280;45734;53.648;9.566;2024-01-10T18:35:49;55131.97;;;-145.06;100.00
59859;BME280;45734;53.648;9.566;2024-01-10T18:40:51;55136.03;;;-145.06;100.00
59859;BME280;45734;53.648;9.566;2024-01-10T18:45:52;55107.66;;;-145.06;100.00
59859;BME280;45734;53.648;9.566;2024-01-10T18:50:52;55136.03;;;-145.06;100.00
59859;BME280;45734;53.648;9.566;2024-01-10T18:55:54;55103.63;;;-145.06;100.00
59859;BME280;45734;53.648;9.566;2024-01-10T19:00:55;55121.84;;;-145.06;100.00
59859;BME280;45734;53.648;9.566;2024-01-10T19:05:55;55119.81;;;-145.06;100.00
59859;BME280;45734;53.648;9.566;2024-01-10T19:10:55;55087.41;;;-145.06;100.00
59859;BME280;45734;53.648;9.566;2024-01-10T19:15:55;55117.78;;;-145.06;100.00
59859;BME280;45734;53.648;9.566;2024-01-10T19:20:56;55097.53;;;-145.06;100.00
59859;BME280;45734;53.648;9.566;2024-01-10T19:25:56;55125.91;;;-145.06;100.00
59859;BME280;45734;53.648;9.566;2024-01-10T19:30:57;55123.88;;;-145.06;100.00
59859;BME280;45734;53.648;9.566;2024-01-10T19:35:58;55111.72;;;-145.06;100.00
59859;BME280;45734;53.648;9.566;2024-01-10T19:40:58;55105.63;;;-145.06;100.00
59859;BME280;45734;53.648;9.566;2024-01-10T19:45:59;55101.59;;;-145.06;100.00
59859;BME280;45734;53.648;9.566;2024-01-10T19:50:59;55075.25;;;-145.06;100.00
59859;BME280;45734;53.648;9.566;2024-01-10T19:55:59;55087.41;;;-145.06;100.00
59859;BME280;45734;53.648;9.566;2024-01-10T20:00:59;55091.47;;;-145.06;100.00
59859;BME280;45734;53.648;9.566;2024-01-10T20:06:00;55087.41;;;-145.06;100.00
59859;BME280;45734;53.648;9.566;2024-01-10T20:11:01;55083.34;;;-145.06;100.00
59859;BME280;45734;53.648;9.566;2024-01-10T20:16:01;55077.28;;;-145.06;100.00
59859;BME280;45734;53.648;9.566;2024-01-10T20:21:03;55113.75;;;-145.06;100.00
59859;BME280;45734;53.648;9.566;2024-01-10T20:26:05;55055.00;;;-145.06;100.00
59859;BME280;45734;53.648;9.566;2024-01-10T20:31:05;55055.00;;;-145.06;100.00
59859;BME280;45734;53.648;9.566;2024-01-10T20:36:06;55081.34;;;-145.06;100.00
59859;BME280;45734;53.648;9.566;2024-01-10T20:41:06;55083.34;;;-145.06;100.00
59859;BME280;45734;53.648;9.566;2024-01-10T20:46:07;55095.50;;;-145.06;100.00
59859;BME280;45734;53.648;9.566;2024-01-10T20:51:07;55083.34;;;-145.06;100.00
59859;BME280;45734;53.648;9.566;2024-01-10T20:56:07;55097.53;;;-145.06;100.00
59859;BME280;45734;53.648;9.566;2024-01-10T21:01:10;55101.59;;;-145.06;100.00
59859;BME280;45734;53.648;9.566;2024-01-10T21:06:10;55105.63;;;-145.06;100.00
59859;BME280;45734;53.648;9.566;2024-01-10T21:11:10;55087.41;;;-145.06;100.00
59859;BME280;45734;53.648;9.566;2024-01-10T21:16:11;55103.63;;;-145.06;100.00
59859;BME280;45734;53.648;9.566;2024-01-10T21:21:11;55073.22;;;-145.06;100.00
59859;BME280;45734;53.648;9.566;2024-01-10T21:26:11;55089.44;;;-145.06;100.00
59859;BME280;45734;53.648;9.566;2024-01-10T21:31:12;55099.56;;;-145.06;100.00
59859;BME280;45734;53.648;9.566;2024-01-10T21:36:12;55103.63;;;-145.06;100.00
59859;BME280;45734;53.648;9.566;2024-01-10T21:41:13;55119.81;;;-145.06;100.00
59859;BME280;45734;53.648;9.566;2024-01-10T21:46:13;55099.56;;;-145.06;100.00
59859;BME280;45734;53.648;9.566;2024-01-10T21:51:13;55097.53;;;-145.06;100.00
59859;BME280;45734;53.648;9.566;2024-01-10T21:56:13;55103.63;;;-145.06;100.00
59859;BME280;45734;53.648;9.566;2024-01-10T22:01:14;55091.47;;;-145.06;100.00
59859;BME280;45734;53.648;9.566;2024-01-10T22:06:14;55103.63;;;-145.06;100.00
59859;BME280;45734;53.648;9.566;2024-01-10T22:11:14;55162.38;;;-145.06;100.00
59859;BME280;45734;53.648;9.566;2024-01-10T22:16:15;55091.47;;;-145.06;100.00
59859;BME280;45734;53.648;9.566;2024-01-10T22:21:15;55146.16;;;-145.06;100.00
59859;BME280;45734;53.648;9.566;2024-01-10T22:26:15;55095.50;;;-145.06;100.00
59859;BME280;45734;53.648;9.566;2024-01-10T22:31:16;55117.78;;;-145.06;100.00
59859;BME280;45734;53.648;9.566;2024-01-10T22:36:17;55107.66;;;-145.06;100.00
59859;BME280;45734;53.648;9.566;2024-01-10T22:41:17;55138.06;;;-145.06;100.00
59859;BME280;45734;53.648;9.566;2024-01-10T22:46:17;55115.78;;;-145.06;100.00
59859;BME280;45734;53.648;9.566;2024-01-10T22:51:18;55089.44;;;-145.06;100.00
59859;BME280;45734;53.648;9.566;2024-01-10T22:56:18;55123.88;;;-145.06;100.00
59859;BME280;45734;53.648;9.566;2024-01-10T23:01:19;55142.09;;;-145.06;100.00
59859;BME280;45734;53.648;9.566;2024-01-10T23:06:20;55119.81;;;-145.06;100.00
59859;BME280;45734;53.648;9.566;2024-01-10T23:11:20;55119.81;;;-145.06;100.00
59859;BME280;45734;53.648;9.566;2024-01-10T23:16:21;55117.78;;;-145.06;100.00
59859;BME280;45734;53.648;9.566;2024-01-10T23:21:22;55144.13;;;-145.06;100.00
59859;BME280;45734;53.648;9.566;2024-01-10T23:26:23;55164.38;;;-145.06;100.00
59859;BME280;45734;53.648;9.566;2024-01-10T23:31:23;55168.44;;;-145.06;100.00
59859;BME280;45734;53.648;9.566;2024-01-10T23:36:23;55146.16;;;-145.06;100.00
59859;BME280;45734;53.648;9.566;2024-01-10T23:41:24;55119.81;;;-145.06;100.00
59859;BME280;45734;53.648;9.566;2024-01-10T23:46:24;55150.22;;;-145.06;100.00
59859;BME280;45734;53.648;9.566;2024-01-10T23:51:24;55144.13;;;-145.06;100.00
59859;BME280;45734;53.648;9.566;2024-01-10T23:56:25;55140.06;;;-145.06;100.00
